Time;durP1;ratioP1;P1;durP2;ratioP2;P2;SDS_P1;SDS_P2;PMS_P1;PMS_P2;Temp;Humidity;BMP_temperature;BMP_pressure;BME280_temperature;BME280_humidity;BME280_pressure;Samples;Min_cycle;Max_cycle;Signal;HPM_P1;HPM_P2
2021/01/26 00:00:56;;;;;;;4.28;0.75;;;;;;;8.02;35.24;92396.97;5098071;28;20035;-71
2021/01/26 00:03:22;;;;;;;3.88;0.68;;;;;;;8.00;35.29;92391.22;5122580;27;20103;-71
2021/01/26 00:05:48;;;;;;;2.65;0.80;;;;;;;7.96;35.17;92393.00;5126543;27;20467;-71
2021/01/26 00:08:14;;;;;;;8.07;1.00;;;;;;;7.96;35.09;92385.81;5099148;28;20154;-71
2021/01/26 00:10:40;;;;;;;0.63;0.30;;;;;;;7.97;34.83;92384.69;5114906;27;20031;-71
2021/01/26 00:13:06;;;;;;;1.83;0.68;;;;;;;7.97;35.56;92383.94;5100552;28;20089;-71
2021/01/26 00:15:31;;;;;;;4.38;0.82;;;;;;;8.00;35.26;92391.22;5108918;27;20027;-72
2021/01/26 00:17:58;;;;;;;1.92;0.60;;;;;;;7.97;35.10;92346.78;5122898;27;20059;-71
2021/01/26 00:20:25;;;;;;;2.72;0.63;;;;;;;7.98;35.58;92346.47;5103918;27;20022;-71
2021/01/26 00:22:50;;;;;;;2.22;0.50;;;;;;;7.99;35.27;92365.78;5105119;27;20054;-71
2021/01/26 00:25:20;;;;;;;2.85;1.23;;;;;;;7.96;35.36;92371.78;5112092;28;20054;-71
2021/01/26 00:27:45;;;;;;;5.40;0.80;;;;;;;7.95;35.32;92384.25;5117317;27;20019;-71
2021/01/26 00:30:18;;;;;;;6.15;0.90;;;;;;;7.97;35.74;92379.38;5100416;28;20092;-71
2021/01/26 00:32:43;;;;;;;;;;;;;;;7.94;35.82;92369.44;5128500;27;20110;-71
2021/01/26 00:35:10;;;;;;;1.70;0.52;;;;;;;7.91;36.11;92372.75;5112427;28;19950;-73
2021/01/26 00:37:35;;;;;;;1.90;1.00;;;;;;;7.97;35.89;92339.59;5118382;28;20030;-74
2021/01/26 00:40:01;;;;;;;2.67;0.68;;;;;;;7.91;35.92;92324.25;5122624;28;20028;-74
2021/01/26 00:42:27;;;;;;;3.55;0.70;;;;;;;7.88;35.88;92332.88;5103754;28;20432;-74
2021/01/26 00:44:53;;;;;;;1.38;0.50;;;;;;;7.90;36.17;92330.66;5103297;28;20148;-74
2021/01/26 00:47:18;;;;;;;3.08;0.82;;;;;;;7.88;36.27;92346.13;5119060;27;20466;-73
2021/01/26 00:49:44;;;;;;;3.03;0.93;;;;;;;7.89;36.42;92337.81;5113127;28;20181;-74
2021/01/26 00:52:09;;;;;;;1.60;0.60;;;;;;;7.89;36.08;92326.44;5096039;28;20110;-74
2021/01/26 00:54:34;;;;;;;3.25;0.55;;;;;;;7.89;36.92;92326.44;5096232;28;20068;-74
2021/01/26 00:57:00;;;;;;;3.55;0.90;;;;;;;7.86;36.36;92330.53;5103044;28;20042;-73
2021/01/26 00:59:25;;;;;;;2.65;0.50;;;;;;;7.90;36.95;92330.66;5104709;28;20019;-74
2021/01/26 01:01:52;;;;;;;0.90;0.40;;;;;;;7.89;36.42;92321.16;5124611;27;20031;-75
2021/01/26 01:04:17;;;;;;;0.77;0.40;;;;;;;7.91;36.27;92353.41;5101528;28;20072;-74
2021/01/26 01:06:43;;;;;;;2.90;0.68;;;;;;;7.92;36.68;92334.53;5097871;28;20030;-73
2021/01/26 01:09:08;;;;;;;1.30;0.52;;;;;;;7.90;36.49;92317.41;5119803;27;20117;-74
2021/01/26 01:11:34;;;;;;;3.40;0.70;;;;;;;7.92;36.50;92345.13;5121309;27;20102;-74
2021/01/26 01:13:59;;;;;;;2.55;0.98;;;;;;;7.96;36.62;92339.94;5103181;27;20173;-73
2021/01/26 01:16:24;;;;;;;2.97;0.60;;;;;;;7.96;36.54;92324.03;5121666;27;20102;-74
2021/01/26 01:18:50;;;;;;;2.83;0.65;;;;;;;7.97;36.89;92299.03;5122401;27;20032;-74
2021/01/26 01:21:15;;;;;;;1.25;0.60;;;;;;;8.02;37.07;92322.69;5118242;27;20032;-74
2021/01/26 01:23:41;;;;;;;2.20;1.20;;;;;;;8.03;37.14;92293.16;5119486;27;20025;-74
2021/01/26 01:26:06;;;;;;;0.82;0.47;;;;;;;8.02;37.23;92317.38;5107986;27;20034;-74
2021/01/26 01:28:31;;;;;;;4.47;0.70;;;;;;;8.04;36.88;92304.56;5105506;28;20027;-73
2021/01/26 01:30:57;;;;;;;2.90;0.63;;;;;;;8.08;37.55;92312.59;5116419;27;20031;-74
2021/01/26 01:33:23;;;;;;;2.13;0.68;;;;;;;8.06;37.38;92306.84;5112272;27;20487;-74
2021/01/26 01:35:49;;;;;;;3.40;0.55;;;;;;;8.01;37.71;92318.47;5119822;27;20055;-73
2021/01/26 01:38:15;;;;;;;4.18;0.50;;;;;;;8.03;37.96;92332.94;5103914;27;20490;-73
2021/01/26 01:40:40;;;;;;;2.45;0.50;;;;;;;8.05;37.65;92319.34;5104938;28;20024;-73
2021/01/26 01:43:07;;;;;;;1.38;0.50;;;;;;;8.02;37.76;92304.88;5127619;27;20028;-71
2021/01/26 01:45:33;;;;;;;3.72;0.85;;;;;;;8.04;37.68;92299.25;5107487;28;20111;-71
2021/01/26 01:48:04;;;;;;;1.63;0.43;;;;;;;8.04;38.27;92318.59;5103309;27;20033;-71
2021/01/26 01:50:35;;;;;;;3.10;0.43;;;;;;;8.04;38.19;92283.31;5117919;27;20034;-71
2021/01/26 01:53:23;;;;;;;4.70;0.75;;;;;;;7.98;38.50;92296.03;5121782;27;20645;-71
2021/01/26 01:56:16;;;;;;;2.58;0.50;;;;;;;7.94;38.55;92302.34;5108104;27;20026;-71
2021/01/26 01:58:43;;;;;;;;;;;;;;;7.97;38.97;92286.53;5117135;27;20397;-71
2021/01/26 02:01:15;;;;;;;1.75;0.52;;;;;;;7.94;38.71;92283.78;5108511;27;19956;-71
2021/01/26 02:03:49;;;;;;;4.15;0.90;;;;;;;7.93;39.08;92295.50;5091169;28;20064;-71
2021/01/26 02:06:16;;;;;;;1.52;0.47;;;;;;;7.95;39.23;92264.88;5103987;27;20027;-72
2021/01/26 02:09:09;;;;;;;7.25;1.13;;;;;;;8.00;38.90;92285.09;5123798;27;20023;-71
2021/01/26 02:11:35;;;;;;;2.78;0.80;;;;;;;8.02;39.21;92246.50;5104933;27;20078;-72
2021/01/26 02:14:01;;;;;;;2.10;0.45;;;;;;;7.98;39.33;92272.16;5103037;27;20047;-73
2021/01/26 02:17:11;;;;;;;5.03;0.68;;;;;;;8.04;39.40;92284.09;5118695;27;20406;-72
2021/01/26 02:20:02;;;;;;;4.57;0.82;;;;;;;8.02;39.58;92273.03;5037445;28;20029;-72
2021/01/26 02:22:53;;;;;;;0.52;0.30;;;;;;;8.05;39.69;92268.94;5051726;28;20028;-71
2021/01/26 02:25:49;;;;;;;3.80;0.77;;;;;;;8.02;39.64;92245.75;5107607;27;20042;-71
2021/01/26 02:28:52;;;;;;;6.22;0.70;;;;;;;8.02;39.87;92246.50;5125308;27;20058;-71
2021/01/26 02:31:39;;;;;;;3.88;0.63;;;;;;;8.07;40.02;92271.25;5105802;27;20790;-71
2021/01/26 02:34:25;;;;;;;1.65;0.47;;;;;;;8.06;39.88;92285.63;5094781;28;20419;-71
2021/01/26 02:37:18;;;;;;;1.83;0.60;;;;;;;8.12;40.09;92253.22;5062027;27;20463;-71
2021/01/26 02:40:07;;;;;;;4.60;0.90;;;;;;;8.07;39.96;92253.44;5105075;28;20028;-71
2021/01/26 02:42:48;;;;;;;1.10;0.50;;;;;;;8.06;40.27;92248.47;5120439;27;20013;-71
2021/01/26 02:45:35;;;;;;;2.67;0.73;;;;;;;8.10;40.18;92252.00;5100126;27;20063;-71
2021/01/26 02:48:30;;;;;;;0.80;0.57;;;;;;;8.09;40.28;92189.44;5101957;28;20054;-71
2021/01/26 02:51:14;;;;;;;1.88;0.60;;;;;;;8.11;40.36;92258.88;5067377;28;20035;-71
2021/01/26 02:54:10;;;;;;;2.58;0.65;;;;;;;8.12;40.58;92255.88;5111230;27;20118;-71
2021/01/26 02:57:01;;;;;;;2.35;0.50;;;;;;;8.17;40.39;92278.75;5119835;27;20122;-72
2021/01/26 02:59:48;;;;;;;0.65;0.43;;;;;;;8.16;40.31;92254.09;5102598;27;20113;-71
2021/01/26 03:02:52;;;;;;;4.05;0.73;;;;;;;8.16;40.18;92258.63;5120776;27;20471;-71
2021/01/26 03:05:24;;;;;;;4.93;0.68;;;;;;;8.22;40.34;92254.63;5048655;27;20066;-71
2021/01/26 03:07:54;;;;;;;;;;;;;;;8.23;40.31;92275.53;5100826;27;20260;-71
2021/01/26 03:10:23;;;;;;;1.20;0.40;;;;;;;8.26;40.30;92279.38;5111229;27;19907;-71
2021/01/26 03:12:58;;;;;;;2.33;0.70;;;;;;;8.30;39.78;92258.25;5115837;27;20040;-71
2021/01/26 03:15:32;;;;;;;0.75;0.45;;;;;;;8.38;40.44;92249.38;5119961;27;20034;-71
2021/01/26 03:18:03;;;;;;;3.22;0.75;;;;;;;8.38;40.43;92233.44;5101056;27;20027;-71
2021/01/26 03:20:54;;;;;;;2.78;0.68;;;;;;;8.39;40.28;92280.91;5105335;27;20031;-70
2021/01/26 03:24:01;;;;;;;0.93;0.40;;;;;;;8.39;39.97;92293.41;5122414;27;20114;-70
2021/01/26 03:26:27;;;;;;;3.45;0.70;;;;;;;8.37;40.15;92285.78;5107609;27;20417;-71
2021/01/26 03:28:59;;;;;;;2.40;0.77;;;;;;;8.41;40.24;92270.75;5113503;27;20234;-71
2021/01/26 03:31:37;;;;;;;3.67;0.55;;;;;;;8.33;40.15;92303.47;5123067;27;20532;-71
2021/01/26 03:34:02;;;;;;;4.35;0.80;;;;;;;8.31;40.51;92286.34;5111297;27;20046;-71
2021/01/26 03:36:28;;;;;;;3.38;0.98;;;;;;;8.31;40.43;92283.69;5099987;27;20414;-71
2021/01/26 03:38:54;;;;;;;1.20;0.47;;;;;;;8.36;40.60;92302.78;5098737;27;21043;-71
2021/01/26 03:41:21;;;;;;;3.28;0.95;;;;;;;8.29;40.56;92289.34;5123330;27;20053;-71
2021/01/26 03:43:47;;;;;;;0.75;0.52;;;;;;;8.34;40.47;92299.69;5118557;27;20095;-71
2021/01/26 03:46:23;;;;;;;1.55;0.70;;;;;;;8.36;41.75;92312.66;5119386;27;20034;-71
2021/01/26 03:49:25;;;;;;;3.67;0.80;;;;;;;8.36;40.92;92310.00;5123374;27;20051;-72
2021/01/26 03:52:12;;;;;;;3.40;0.75;;;;;;;8.32;40.96;92309.13;5103884;27;20031;-72
2021/01/26 03:54:44;;;;;;;1.63;0.50;;;;;;;8.19;41.07;92300.44;5127033;27;20079;-72
2021/01/26 03:57:43;;;;;;;2.20;0.50;;;;;;;8.31;41.54;92305.69;5131292;27;20037;-71
2021/01/26 04:00:33;;;;;;;3.63;0.60;;;;;;;8.31;41.45;92307.59;5119294;27;20029;-71
2021/01/26 04:03:36;;;;;;;1.48;0.45;;;;;;;8.30;41.34;92292.75;5123294;27;20124;-71
2021/01/26 04:06:20;;;;;;;3.88;0.68;;;;;;;8.31;41.46;92307.59;5121367;27;20103;-71
2021/01/26 04:08:50;;;;;;;2.08;0.60;;;;;;;8.35;41.52;92311.13;5130583;27;20474;-71
2021/01/26 04:11:22;;;;;;;4.07;0.63;;;;;;;8.39;41.66;92326.03;5107873;27;20130;-71
2021/01/26 04:14:14;;;;;;;0.82;0.57;;;;;;;8.40;41.44;92310.88;5098413;28;20069;-71
2021/01/26 04:17:11;;;;;;;3.45;0.70;;;;;;;8.43;41.18;92283.69;5097760;27;20038;-71
2021/01/26 04:19:45;;;;;;;1.90;0.80;;;;;;;8.43;41.66;92310.25;5119790;27;20122;-71
2021/01/26 04:22:13;;;;;;;2.15;0.70;;;;;;;8.46;41.26;92314.84;5124041;27;20497;-71
2021/01/26 04:24:39;;;;;;;1.98;0.50;;;;;;;8.47;41.29;92319.06;5097595;28;20035;-71
2021/01/26 04:27:10;;;;;;;3.22;0.52;;;;;;;8.44;41.41;92322.38;5114964;27;20107;-71
2021/01/26 04:29:35;;;;;;;3.70;0.65;;;;;;;8.51;41.44;92322.59;5096603;27;20023;-71
2021/01/26 04:32:01;;;;;;;1.75;0.70;;;;;;;8.51;41.28;92313.84;5125384;28;20052;-71
2021/01/26 04:34:26;;;;;;;1.35;0.50;;;;;;;8.53;41.37;92327.56;5106827;28;20683;-71
2021/01/26 04:36:51;;;;;;;5.95;1.45;;;;;;;8.51;41.24;92322.59;5097622;28;20482;-72
2021/01/26 04:39:17;;;;;;;8.15;1.17;;;;;;;8.54;41.42;92329.13;5107204;28;20029;-71
2021/01/26 04:41:56;;;;;;;6.85;1.75;;;;;;;8.55;41.59;92330.69;5101325;27;20042;-71
2021/01/26 04:44:59;;;;;;;3.50;0.85;;;;;;;8.59;41.50;92316.38;5130864;27;20119;-70
2021/01/26 04:47:49;;;;;;;2.17;0.63;;;;;;;8.72;41.28;92322.41;5104600;27;20032;-72
2021/01/26 04:50:20;;;;;;;2.08;0.52;;;;;;;8.72;41.30;92326.94;5110625;27;20487;-72
2021/01/26 04:52:59;;;;;;;3.75;0.50;;;;;;;8.75;41.06;92326.25;5125679;27;20023;-73
2021/01/26 04:56:00;;;;;;;2.47;0.95;;;;;;;8.77;40.60;92346.09;5126168;27;20143;-72
2021/01/26 04:58:34;;;;;;;3.75;0.65;;;;;;;8.77;40.99;92345.28;5117940;27;20406;-71
2021/01/26 05:01:32;;;;;;;1.00;0.57;;;;;;;8.82;40.86;92345.06;5111585;27;20031;-72
2021/01/26 05:04:14;;;;;;;0.50;0.43;;;;;;;8.78;41.42;92354.81;5059881;27;20135;-71
2021/01/26 05:06:50;;;;;;;5.40;0.63;;;;;;;8.79;41.42;92337.75;5100208;28;20719;-71
2021/01/26 05:09:21;;;;;;;1.85;0.63;;;;;;;8.85;41.29;92357.66;5121951;27;20028;-72
2021/01/26 05:11:48;;;;;;;2.28;0.80;;;;;;;8.94;41.31;92376.13;5127214;27;20031;-74
2021/01/26 05:14:25;;;;;;;1.95;0.60;;;;;;;8.92;41.08;92357.88;5120074;27;20054;-71
2021/01/26 05:17:02;;;;;;;4.55;0.68;;;;;;;8.99;40.77;92341.31;5105155;28;20126;-71
2021/01/26 05:19:49;;;;;;;0.77;0.50;;;;;;;9.01;40.60;92371.00;5115904;27;20027;-71
2021/01/26 05:22:27;;;;;;;6.35;1.05;;;;;;;9.02;40.92;92357.38;5111846;27;20553;-73
2021/01/26 05:25:12;;;;;;;6.38;1.58;;;;;;;9.06;41.28;92372.63;5130900;27;20035;-73
2021/01/26 05:27:39;;;;;;;7.95;2.05;;;;;;;8.80;43.58;92408.38;5108158;27;20035;-73
2021/01/26 05:30:12;;;;;;;7.30;2.25;;;;;;;8.57;44.89;92406.22;5115108;27;20028;-73
2021/01/26 05:32:42;;;;;;;14.45;2.45;;;;;;;8.41;46.10;92419.41;5109617;27;20118;-73
2021/01/26 05:35:08;;;;;;;7.78;2.75;;;;;;;8.23;46.59;92434.78;5108975;27;20455;-72
2021/01/26 05:37:34;;;;;;;8.55;3.33;;;;;;;7.98;47.61;92418.09;5128002;27;20027;-71
2021/01/26 05:40:05;;;;;;;6.63;2.67;;;;;;;7.88;47.93;92426.50;5112276;27;20026;-71
2021/01/26 05:42:31;;;;;;;8.50;3.15;;;;;;;7.31;49.79;92414.78;5108833;27;20617;-71
2021/01/26 05:45:01;;;;;;;10.10;2.55;;;;;;;7.37;50.43;92436.56;5121061;27;20019;-71
2021/01/26 05:47:30;;;;;;;5.03;2.55;;;;;;;7.35;50.43;92434.22;5125414;27;20062;-71
2021/01/26 05:49:56;;;;;;;13.52;2.40;;;;;;;7.15;51.25;92448.31;5121919;27;20027;-70
2021/01/26 05:52:35;;;;;;;14.73;2.60;;;;;;;7.09;51.42;92457.56;5103129;28;20024;-72
2021/01/26 05:55:03;;;;;;;20.83;2.95;;;;;;;6.97;52.27;92455.63;5120191;27;20070;-72
2021/01/26 05:57:35;;;;;;;7.20;2.38;;;;;;;6.86;52.69;92460.53;5106305;28;20080;-72
2021/01/26 06:00:21;;;;;;;7.90;2.60;;;;;;;6.58;53.61;92445.16;5121152;27;20035;-72
2021/01/26 06:02:48;;;;;;;6.85;2.40;;;;;;;6.57;53.93;92456.06;5124681;27;20397;-72
2021/01/26 06:05:21;;;;;;;5.72;2.13;;;;;;;6.42;54.68;92468.75;5106760;27;20044;-73
2021/01/26 06:08:10;;;;;;;3.95;2.05;;;;;;;6.06;56.81;92474.53;5106972;27;20015;-74
2021/01/26 06:10:37;;;;;;;8.77;2.70;;;;;;;6.00;56.97;92483.75;5119573;27;20054;-73
2021/01/26 06:13:03;;;;;;;6.55;1.92;;;;;;;5.89;57.30;92478.00;5126320;27;20055;-73
2021/01/26 06:15:32;;;;;;;4.10;1.48;;;;;;;5.62;58.53;92489.78;5130385;27;20102;-73
2021/01/26 06:18:18;;;;;;;7.03;2.58;;;;;;;5.56;59.15;92506.88;5104873;27;20375;-73
2021/01/26 06:21:01;;;;;;;7.63;1.90;;;;;;;5.41;59.97;92497.56;5121339;27;20090;-73
2021/01/26 06:23:29;;;;;;;7.63;3.42;;;;;;;5.23;61.56;92516.09;5116021;27;20016;-73
2021/01/26 06:25:58;;;;;;;5.80;2.80;;;;;;;5.06;62.58;92515.31;5112716;28;20015;-71
2021/01/26 06:28:40;;;;;;;14.82;5.43;;;;;;;4.96;62.91;92530.38;5125994;27;20019;-72
2021/01/26 06:31:18;;;;;;;3.65;1.55;;;;;;;4.70;64.01;92537.50;5126171;27;20102;-73
2021/01/26 06:33:47;;;;;;;6.55;1.75;;;;;;;4.60;64.52;92535.94;5105653;27;20027;-73
2021/01/26 06:36:44;;;;;;;6.35;2.40;;;;;;;4.52;65.70;92553.31;5105755;27;20130;-74
2021/01/26 06:39:40;;;;;;;9.95;2.13;;;;;;;4.41;67.03;92555.44;5096960;27;20024;-73
2021/01/26 06:42:14;;;;;;;11.75;1.95;;;;;;;4.30;67.61;92556.81;5098984;27;20095;-72
2021/01/26 06:45:20;;;;;;;4.95;1.30;;;;;;;4.05;68.72;92558.25;5106826;28;20467;-74
2021/01/26 06:48:04;;;;;;;4.18;2.03;;;;;;;3.85;70.15;92559.56;4997218;28;20565;-74
2021/01/26 06:50:50;;;;;;;7.47;2.97;;;;;;;3.80;70.72;92563.09;5018415;28;20026;-74
2021/01/26 06:54:03;;;;;;;5.10;2.28;;;;;;;3.75;70.83;92571.13;5070907;27;20512;-74
2021/01/26 06:57:08;;;;;;;5.50;2.45;;;;;;;3.64;71.53;92580.34;5016486;28;20022;-74
2021/01/26 07:00:00;;;;;;;4.68;2.10;;;;;;;3.58;72.61;92592.09;5006693;28;20168;-74
2021/01/26 07:02:29;;;;;;;;;;;;;;;3.47;73.03;92593.44;5108157;28;20028;-75
2021/01/26 07:05:15;;;;;;;9.85;2.13;;;;;;;3.39;73.21;92605.44;5100835;28;20371;-78
2021/01/26 07:07:59;;;;;;;8.90;2.30;;;;;;;3.37;73.55;92597.84;5121770;27;20049;-73
2021/01/26 07:10:37;;;;;;;3.42;1.63;;;;;;;3.33;74.05;92612.69;5101639;28;20041;-73
2021/01/26 07:13:27;;;;;;;3.00;1.15;;;;;;;3.21;74.39;92615.06;5098136;28;20047;-75
2021/01/26 07:16:04;;;;;;;8.20;1.58;;;;;;;3.26;74.23;92625.50;5118895;27;20057;-75
2021/01/26 07:18:49;;;;;;;18.77;4.28;;;;;;;3.22;74.95;92627.16;5099553;27;20031;-75
2021/01/26 07:21:40;;;;;;;15.38;3.28;;;;;;;3.13;75.46;92639.47;5075467;27;20109;-76
2021/01/26 07:24:31;;;;;;;8.23;1.83;;;;;;;2.99;75.58;92634.22;5097474;28;20015;-75
2021/01/26 07:26:59;;;;;;;4.50;1.52;;;;;;;2.86;76.07;92646.31;5110927;28;20027;-76
2021/01/26 07:29:34;;;;;;;2.65;0.93;;;;;;;2.65;75.47;92656.50;5109124;28;20856;-75
2021/01/26 07:32:10;;;;;;;5.47;1.80;;;;;;;2.40;75.81;92655.09;5110942;28;20067;-75
2021/01/26 07:34:46;;;;;;;4.78;1.73;;;;;;;2.23;76.32;92660.16;5108136;28;20390;-76
2021/01/26 07:37:20;;;;;;;6.90;1.55;;;;;;;2.07;76.06;92662.25;5092456;28;20024;-76
2021/01/26 07:39:55;;;;;;;4.18;1.40;;;;;;;1.82;76.75;92671.34;5117984;27;20206;-76
2021/01/26 07:42:25;;;;;;;4.15;1.30;;;;;;;1.59;77.27;92676.44;5095207;28;20079;-76
2021/01/26 07:45:08;;;;;;;6.45;1.30;;;;;;;1.44;77.99;92685.28;5092625;28;20111;-75
2021/01/26 07:47:40;;;;;;;4.13;1.85;;;;;;;1.25;78.49;92687.94;5092312;28;20015;-76
2021/01/26 07:50:15;;;;;;;6.90;2.80;;;;;;;1.19;78.71;92702.19;5110956;28;20012;-77
2021/01/26 07:52:45;;;;;;;7.53;2.80;;;;;;;1.12;79.47;92712.25;5091623;28;20046;-72
2021/01/26 07:55:15;;;;;;;6.25;2.70;;;;;;;0.97;80.56;92721.09;5118126;27;20023;-74
2021/01/26 07:57:57;;;;;;;6.45;2.58;;;;;;;0.93;80.44;92717.47;5123594;27;20091;-72
2021/01/26 08:00:29;;;;;;;9.27;4.00;;;;;;;0.93;80.51;92722.72;5103875;28;20046;-71
2021/01/26 08:02:56;;;;;;;2.97;1.70;;;;;;;0.83;80.84;92730.69;5115203;27;20151;-70
2021/01/26 08:05:37;;;;;;;1.95;1.15;;;;;;;0.77;80.88;92737.84;5112693;27;20023;-71
2021/01/26 08:08:05;;;;;;;2.40;1.10;;;;;;;0.75;80.89;92738.13;5108365;28;20024;-71
2021/01/26 08:10:31;;;;;;;2.95;0.50;;;;;;;0.67;80.85;92748.44;5107377;27;20056;-70
2021/01/26 08:12:56;;;;;;;2.90;0.80;;;;;;;0.63;81.09;92761.31;5130317;27;20047;-70
2021/01/26 08:15:33;;;;;;;2.28;1.05;;;;;;;0.61;81.15;92771.31;5112277;28;20023;-70
2021/01/26 08:18:16;;;;;;;3.70;1.27;;;;;;;0.50;81.42;92760.13;5102584;27;20023;-71
2021/01/26 08:20:42;;;;;;;3.03;1.20;;;;;;;0.52;81.84;92762.50;5129243;27;20023;-72
2021/01/26 08:23:11;;;;;;;4.55;1.88;;;;;;;0.49;82.02;92773.50;5117966;27;20023;-72
2021/01/26 08:25:40;;;;;;;5.32;2.35;;;;;;;0.49;82.62;92773.50;5112729;27;20031;-71
2021/01/26 08:28:09;;;;;;;7.40;2.80;;;;;;;0.55;82.60;92775.03;5110468;28;20485;-71
2021/01/26 08:30:50;;;;;;;7.93;3.05;;;;;;;0.57;82.40;92786.03;5127185;27;20099;-72
2021/01/26 08:33:16;;;;;;;10.75;3.58;;;;;;;0.54;82.32;92783.97;5101082;28;20035;-72
2021/01/26 08:35:42;;;;;;;5.63;2.38;;;;;;;0.57;82.10;92797.31;5126647;27;20102;-71
2021/01/26 08:38:09;;;;;;;4.82;1.83;;;;;;;0.46;82.04;92789.81;5102541;28;20519;-70
2021/01/26 08:40:34;;;;;;;2.47;0.88;;;;;;;0.23;81.89;92796.56;5097520;28;20031;-69
2021/01/26 08:43:05;;;;;;;1.13;0.55;;;;;;;0.13;82.32;92790.34;5091901;28;20019;-69
2021/01/26 08:45:32;;;;;;;1.55;0.85;;;;;;;0.07;82.67;92788.03;5125949;28;20027;-70
2021/01/26 08:47:59;;;;;;;3.15;1.20;;;;;;;-0.04;83.40;92800.41;5101008;28;20019;-70
2021/01/26 08:50:26;;;;;;;1.73;0.85;;;;;;;-0.12;83.38;92807.03;5116132;28;20149;-70
2021/01/26 08:53:26;;;;;;;1.65;0.50;;;;;;;-0.26;83.86;92800.84;5122706;28;20077;-69
2021/01/26 08:56:25;;;;;;;1.30;0.98;;;;;;;-0.30;83.66;92803.22;5122240;27;20036;-69
2021/01/26 08:58:53;;;;;;;1.40;0.93;;;;;;;-0.37;84.15;92805.34;5105716;28;20103;-70
2021/01/26 09:01:21;;;;;;;1.88;0.90;;;;;;;-0.42;84.29;92802.75;5125134;28;20031;-70
2021/01/26 09:03:47;;;;;;;3.78;1.05;;;;;;;-0.43;84.34;92801.97;5122122;27;20053;-71
2021/01/26 09:06:39;;;;;;;1.48;0.70;;;;;;;-0.50;84.14;92798.88;5097595;28;20490;-71
2021/01/26 09:09:19;;;;;;;1.52;0.82;;;;;;;-0.54;84.12;92799.69;5103174;28;20038;-71
2021/01/26 09:11:44;;;;;;;2.25;1.10;;;;;;;-0.59;84.06;92786.59;5125312;28;20030;-70
2021/01/26 09:14:44;;;;;;;0.68;0.40;;;;;;;-0.66;83.74;92800.00;5119531;28;20430;-70
2021/01/26 09:17:20;;;;;;;0.80;0.60;;;;;;;-0.62;84.00;92798.41;5100415;28;20077;-71
2021/01/26 09:20:04;;;;;;;1.05;0.77;;;;;;;-0.64;83.64;92803.13;5114673;28;20114;-71
2021/01/26 09:22:31;;;;;;;1.10;0.73;;;;;;;-0.68;83.91;92802.09;5102760;28;20015;-71
2021/01/26 09:25:13;;;;;;;1.55;0.95;;;;;;;-0.74;83.41;92816.25;5124850;28;20022;-70
2021/01/26 09:27:39;;;;;;;1.10;0.75;;;;;;;-0.73;83.12;92821.22;5121925;27;20027;-71
2021/01/26 09:30:20;;;;;;;2.15;1.10;;;;;;;-0.83;83.44;92802.97;5101218;28;20081;-72
2021/01/26 09:33:12;;;;;;;2.38;1.10;;;;;;;-0.86;83.87;92819.16;5100485;28;20026;-73
2021/01/26 09:35:45;;;;;;;2.25;1.08;;;;;;;-0.82;84.95;92805.28;5110482;27;20130;-73
2021/01/26 09:38:13;;;;;;;2.30;1.25;;;;;;;-0.83;84.72;92818.66;5093803;28;20486;-73
2021/01/26 09:40:42;;;;;;;3.60;1.85;;;;;;;-0.88;84.48;92821.28;5118126;27;20464;-73
2021/01/26 09:43:24;;;;;;;4.40;1.83;;;;;;;-0.77;84.96;92828.03;5119736;27;20016;-73
2021/01/26 09:46:01;;;;;;;4.00;1.20;;;;;;;-0.82;84.74;92831.44;5103761;27;20034;-73
2021/01/26 09:48:29;;;;;;;10.30;1.88;;;;;;;-0.76;84.51;92813.91;5101142;27;20047;-73
2021/01/26 09:51:03;;;;;;;2.80;1.38;;;;;;;-0.80;84.21;92823.34;5103868;27;20046;-73
2021/01/26 09:53:28;;;;;;;2.10;1.05;;;;;;;-0.76;84.24;92845.28;5122158;27;20110;-74
2021/01/26 09:55:54;;;;;;;2.67;0.90;;;;;;;-0.93;82.22;92840.38;5122044;27;20051;-73
2021/01/26 09:58:20;;;;;;;2.50;1.20;;;;;;;-1.01;83.47;92831.25;5100421;28;20023;-73
2021/01/26 10:00:46;;;;;;;2.00;0.95;;;;;;;-1.09;82.87;92829.19;5124961;27;20019;-74
2021/01/26 10:03:13;;;;;;;1.58;0.80;;;;;;;-1.09;81.84;92846.72;5100603;28;20020;-74
2021/01/26 10:05:38;;;;;;;2.40;1.00;;;;;;;-1.14;82.79;92820.56;5125065;27;20026;-73
2021/01/26 10:08:09;;;;;;;2.72;1.35;;;;;;;-1.13;83.27;92816.91;5113784;27;20478;-72
2021/01/26 10:10:35;;;;;;;2.88;1.25;;;;;;;-1.01;83.84;92836.47;5127600;27;20357;-73
2021/01/26 10:13:27;;;;;;;1.88;1.10;;;;;;;-1.03;82.49;92819.50;5104842;27;20049;-74
2021/01/26 10:15:54;;;;;;;1.50;0.90;;;;;;;-1.01;82.37;92822.63;5105137;27;20034;-72
2021/01/26 10:18:31;;;;;;;2.28;1.25;;;;;;;-0.97;81.61;92828.13;5129628;27;20167;-73
2021/01/26 10:21:03;;;;;;;1.67;0.90;;;;;;;-1.04;82.18;92818.72;5098404;27;20458;-72
2021/01/26 10:23:43;;;;;;;1.88;1.00;;;;;;;-1.01;82.84;92839.09;5105816;28;20459;-72
2021/01/26 10:26:39;;;;;;;2.67;1.23;;;;;;;-1.06;82.84;92825.25;5121923;27;20035;-72
2021/01/26 10:29:10;;;;;;;3.70;1.83;;;;;;;-1.05;82.50;92821.59;5122063;27;20046;-72
2021/01/26 10:31:46;;;;;;;3.47;1.80;;;;;;;-1.11;83.16;92822.66;5104608;27;20027;-72
2021/01/26 10:34:20;;;;;;;3.33;1.70;;;;;;;-1.13;82.62;92828.16;5114732;27;20257;-72
2021/01/26 10:36:46;;;;;;;2.63;1.65;;;;;;;-1.17;82.36;92829.72;5127102;27;20027;-72
2021/01/26 10:39:28;;;;;;;3.35;1.17;;;;;;;-1.23;82.08;92825.56;5101078;28;20019;-73
2021/01/26 10:42:07;;;;;;;2.78;1.67;;;;;;;-1.35;82.78;92833.69;5103830;27;20502;-72
2021/01/26 10:44:42;;;;;;;5.15;2.17;;;;;;;-1.30;83.00;92825.84;5131127;27;20031;-71
2021/01/26 10:47:22;;;;;;;3.15;1.70;;;;;;;-1.24;83.52;92839.69;5103346;27;20023;-72
2021/01/26 10:50:15;;;;;;;4.10;1.95;;;;;;;-1.26;83.22;92837.34;5121433;27;20027;-76
2021/01/26 10:52:46;;;;;;;5.32;2.00;;;;;;;-1.19;84.02;92844.91;5101760;27;20443;-71
2021/01/26 10:55:17;;;;;;;3.97;2.05;;;;;;;-1.14;84.27;92844.91;5128562;27;20033;-73
2021/01/26 10:57:45;;;;;;;3.55;1.58;;;;;;;-1.17;82.49;92850.66;5121930;27;20400;-73
2021/01/26 11:00:14;;;;;;;4.68;1.70;;;;;;;-1.15;82.71;92851.16;5110335;27;20058;-74
2021/01/26 11:02:40;;;;;;;4.70;2.00;;;;;;;-1.18;82.79;92856.94;5116226;27;20115;-72
2021/01/26 11:05:08;;;;;;;4.22;2.00;;;;;;;-1.26;83.05;92849.63;5097189;28;20034;-72
2021/01/26 11:07:34;;;;;;;3.25;1.88;;;;;;;-1.28;82.98;92856.97;5117410;27;20034;-73
2021/01/26 11:09:59;;;;;;;3.05;1.38;;;;;;;-1.25;83.05;92864.25;5101076;28;20398;-73
2021/01/26 11:12:25;;;;;;;2.42;1.42;;;;;;;-1.32;83.07;92863.72;5130220;27;20051;-73
2021/01/26 11:14:51;;;;;;;7.50;2.05;;;;;;;-1.23;83.30;92865.56;5110604;27;20051;-73
2021/01/26 11:17:17;;;;;;;6.72;2.08;;;;;;;-1.27;83.12;92864.50;5102291;27;20135;-73
2021/01/26 11:19:47;;;;;;;4.25;2.30;;;;;;;-1.26;83.55;92873.94;5115207;27;20482;-73
2021/01/26 11:22:12;;;;;;;7.85;2.83;;;;;;;-1.20;83.73;92869.50;5117801;27;20497;-73
2021/01/26 11:24:38;;;;;;;5.28;2.40;;;;;;;-1.19;83.52;92871.03;5104860;27;20023;-73
2021/01/26 11:27:04;;;;;;;3.63;1.88;;;;;;;-1.13;83.19;92877.84;5127666;27;20030;-73
2021/01/26 11:29:29;;;;;;;4.60;2.05;;;;;;;-1.13;81.99;92872.59;5120451;27;20415;-73
2021/01/26 11:31:55;;;;;;;4.20;2.10;;;;;;;-1.07;82.26;92857.69;5103817;27;20513;-73
2021/01/26 11:34:21;;;;;;;5.40;2.08;;;;;;;-1.05;82.44;92863.44;5108925;28;20031;-72
2021/01/26 11:36:46;;;;;;;5.80;2.50;;;;;;;-0.99;82.31;92867.63;5119342;27;20084;-72
2021/01/26 11:39:12;;;;;;;4.68;1.83;;;;;;;-0.95;82.16;92866.03;5113649;27;20030;-73
2021/01/26 11:41:39;;;;;;;3.22;1.65;;;;;;;-0.87;81.65;92865.50;5102253;28;20035;-73
2021/01/26 11:44:04;;;;;;;4.05;1.75;;;;;;;-0.89;81.23;92866.81;5111853;27;20016;-73
2021/01/26 11:46:30;;;;;;;3.83;2.10;;;;;;;-0.84;81.12;92864.16;5119054;27;20517;-73
2021/01/26 11:48:55;;;;;;;5.97;2.30;;;;;;;-0.87;82.23;92868.09;5101321;27;20031;-73
2021/01/26 11:51:21;;;;;;;4.18;2.00;;;;;;;-0.83;81.73;92874.38;5116655;27;20027;-73
2021/01/26 11:53:46;;;;;;;4.43;2.00;;;;;;;-0.79;81.61;92871.22;5110201;28;20153;-73
2021/01/26 11:56:12;;;;;;;5.13;2.10;;;;;;;-0.70;81.80;92875.63;5128534;27;20379;-73
2021/01/26 11:58:37;;;;;;;4.70;2.30;;;;;;;-0.66;81.72;92873.28;5112292;27;20026;-73
2021/01/26 12:01:05;;;;;;;3.83;1.90;;;;;;;-0.71;81.16;92873.28;5126779;27;20114;-74
2021/01/26 12:03:31;;;;;;;4.20;1.92;;;;;;;-0.67;81.16;92876.91;5124229;27;20016;-74
2021/01/26 12:05:56;;;;;;;6.00;2.33;;;;;;;-0.76;81.31;92876.69;5100140;28;20027;-74
2021/01/26 12:08:22;;;;;;;4.55;2.10;;;;;;;-0.82;81.23;92875.16;5109742;28;20474;-73
2021/01/26 12:10:47;;;;;;;4.38;2.13;;;;;;;-0.75;81.61;92878.28;5115170;27;20015;-73
2021/01/26 12:13:13;;;;;;;3.38;1.80;;;;;;;-0.77;81.94;92875.16;5114827;27;20116;-73